createdAt,value
2023-05-23T00:01:43.356Z,11.80
2023-05-23T00:04:10.873Z,11.90
2023-05-23T00:06:38.953Z,12.07
2023-05-23T00:09:06.145Z,12.15
2023-05-23T00:11:33.142Z,12.25
2023-05-23T00:14:01.301Z,11.30
2023-05-23T00:16:28.727Z,11.38
2023-05-23T00:18:57.706Z,12.85
2023-05-23T00:21:24.768Z,12.05
2023-05-23T00:23:51.723Z,12.88
2023-05-23T00:26:18.638Z,10.82
2023-05-23T00:28:46.711Z,11.63
2023-05-23T00:31:13.645Z,11.70
2023-05-23T00:33:40.607Z,11.95
2023-05-23T00:36:07.568Z,12.93
2023-05-23T00:38:34.437Z,11.23
2023-05-23T00:41:02.474Z,11.55
2023-05-23T00:43:29.578Z,11.77
2023-05-23T00:45:56.816Z,11.18
2023-05-23T00:48:25.475Z,11.18
2023-05-23T00:50:53.097Z,10.18
2023-05-23T00:53:20.737Z,10.35
2023-05-23T00:55:47.973Z,10.40
2023-05-23T00:58:15.971Z,9.38
2023-05-23T01:00:45.003Z,10.32
2023-05-23T01:03:18.202Z,9.63
2023-05-23T01:05:45.885Z,10.00
2023-05-23T01:08:13.006Z,10.57
2023-05-23T01:10:40.030Z,9.73
2023-05-23T01:13:34.402Z,9.80
2023-05-23T01:16:13.382Z,10.65
2023-05-23T01:18:48.081Z,9.85
2023-05-23T01:21:19.040Z,9.63
2023-05-23T01:24:29.283Z,10.50
2023-05-23T01:27:08.684Z,9.82
2023-05-23T01:29:41.426Z,10.43
2023-05-23T01:32:12.280Z,9.40
2023-05-23T01:34:41.350Z,9.77
2023-05-23T01:37:10.505Z,10.80
2023-05-23T01:39:38.758Z,10.88
2023-05-23T01:42:06.311Z,11.48
2023-05-23T01:44:35.429Z,10.15
2023-05-23T01:47:08.369Z,11.25
2023-05-23T01:49:36.905Z,10.40
2023-05-23T01:52:04.952Z,12.50
2023-05-23T01:54:35.535Z,12.88
2023-05-23T01:57:03.101Z,13.50
2023-05-23T01:59:30.181Z,13.57
2023-05-23T02:01:58.066Z,14.00
2023-05-23T02:04:25.036Z,15.05
2023-05-23T02:06:51.954Z,19.65
2023-05-23T02:09:18.894Z,21.00
2023-05-23T02:11:45.839Z,22.88
2023-05-23T02:14:13.075Z,22.83
2023-05-23T02:16:40.190Z,26.95
2023-05-23T02:19:07.205Z,26.77
2023-05-23T02:21:35.434Z,27.95
2023-05-23T02:24:03.762Z,28.40
2023-05-23T02:26:30.819Z,25.65
2023-05-23T02:28:57.850Z,23.65
2023-05-23T02:31:25.124Z,22.58
2023-05-23T02:33:53.759Z,23.15
2023-05-23T02:36:20.990Z,20.30
2023-05-23T02:38:47.979Z,15.85
2023-05-23T02:41:15.536Z,13.35
2023-05-23T02:43:42.677Z,13.32
2023-05-23T02:46:10.335Z,11.52
2023-05-23T02:48:37.303Z,12.50
2023-05-23T02:51:04.471Z,12.25
2023-05-23T02:53:31.877Z,11.63
2023-05-23T02:55:58.844Z,10.93
2023-05-23T02:58:25.737Z,11.32
2023-05-23T03:00:52.628Z,9.90
2023-05-23T03:03:19.717Z,10.65
2023-05-23T03:05:47.102Z,9.80
2023-05-23T03:08:14.148Z,9.63
2023-05-23T03:10:41.034Z,9.43
2023-05-23T03:13:08.394Z,9.90
2023-05-23T03:18:05.203Z,9.68
2023-05-23T03:20:32.235Z,10.43
2023-05-23T03:22:59.133Z,10.27
2023-05-23T03:25:26.161Z,8.63
2023-05-23T03:27:54.660Z,10.43
2023-05-23T03:30:22.141Z,9.82
2023-05-23T03:32:49.971Z,10.25
2023-05-23T03:35:17.101Z,9.65
2023-05-23T03:37:44.011Z,10.48
2023-05-23T03:40:11.056Z,10.13
2023-05-23T03:42:39.600Z,9.73
2023-05-23T03:45:07.251Z,9.30
2023-05-23T03:47:34.597Z,10.18
2023-05-23T03:50:01.617Z,10.35
2023-05-23T03:52:28.552Z,10.20
2023-05-23T03:54:55.945Z,8.70
2023-05-23T03:57:23.209Z,11.18
2023-05-23T03:59:51.244Z,10.20
2023-05-23T04:02:18.796Z,10.20
2023-05-23T04:04:47.067Z,9.52
2023-05-23T04:07:15.758Z,9.27
2023-05-23T04:09:43.818Z,9.52
2023-05-23T04:12:12.723Z,9.90
2023-05-23T04:14:39.739Z,9.70
2023-05-23T04:17:09.370Z,10.50
2023-05-23T04:19:37.429Z,10.57
2023-05-23T04:22:04.503Z,10.15
2023-05-23T04:24:31.423Z,10.77
2023-05-23T04:26:59.441Z,9.45
2023-05-23T04:29:26.600Z,10.25
2023-05-23T04:31:55.112Z,10.32
2023-05-23T04:34:22.618Z,9.25
2023-05-23T04:36:49.909Z,7.90
2023-05-23T04:39:17.181Z,7.22
2023-05-23T04:42:01.328Z,11.68
2023-05-23T04:45:02.302Z,7.70
2023-05-23T04:47:46.674Z,6.47
2023-05-23T04:50:24.856Z,5.40
2023-05-23T04:52:51.995Z,5.45
2023-05-23T04:55:20.143Z,5.22
2023-05-23T04:57:47.404Z,5.35
2023-05-23T05:00:15.561Z,5.47
2023-05-23T05:02:42.961Z,5.00
2023-05-23T05:05:10.637Z,5.57
2023-05-23T05:07:38.143Z,5.80
2023-05-23T05:10:06.756Z,5.38
2023-05-23T05:12:35.136Z,5.88
2023-05-23T05:15:03.883Z,6.65
2023-05-23T05:17:36.896Z,5.53
2023-05-23T05:20:08.754Z,5.38
2023-05-23T05:22:40.211Z,5.38
2023-05-23T05:25:08.745Z,5.22
2023-05-23T05:27:39.549Z,5.35
2023-05-23T05:30:10.185Z,4.97
2023-05-23T05:32:48.497Z,5.60
2023-05-23T05:35:15.922Z,4.68
2023-05-23T05:37:44.912Z,4.70
2023-05-23T05:40:13.214Z,4.63
2023-05-23T05:42:42.731Z,4.78
2023-05-23T05:45:11.564Z,4.38
2023-05-23T05:47:40.735Z,4.43
2023-05-23T05:50:09.515Z,4.38
2023-05-23T05:52:39.736Z,4.97
2023-05-23T05:57:38.679Z,4.13
2023-05-23T06:00:19.038Z,4.40
2023-05-23T06:02:55.109Z,4.18
2023-05-23T06:05:39.739Z,4.15
2023-05-23T06:08:06.872Z,4.75
2023-05-23T06:10:34.025Z,5.07
2023-05-23T06:13:02.086Z,5.13
2023-05-23T06:15:30.542Z,5.28
2023-05-23T06:17:57.673Z,4.93
2023-05-23T06:20:25.264Z,5.55
2023-05-23T06:22:54.211Z,5.18
2023-05-23T06:25:21.205Z,4.75
2023-05-23T06:27:48.279Z,4.85
2023-05-23T06:30:15.699Z,4.88
2023-05-23T06:32:42.719Z,4.68
2023-05-23T06:35:10.283Z,4.65
2023-05-23T06:37:37.325Z,4.95
2023-05-23T06:40:05.526Z,5.13
2023-05-23T06:42:32.521Z,5.20
2023-05-23T06:45:18.040Z,5.10
2023-05-23T06:47:45.799Z,5.10
2023-05-23T06:50:12.896Z,4.85
2023-05-23T06:52:40.121Z,4.97
2023-05-23T06:55:07.443Z,4.60
2023-05-23T06:57:35.002Z,4.80
2023-05-23T07:00:02.202Z,4.55
2023-05-23T07:02:30.426Z,4.72
2023-05-23T07:04:57.390Z,4.75
2023-05-23T07:07:46.484Z,4.45
2023-05-23T07:10:14.063Z,4.45
2023-05-23T07:12:41.083Z,4.30
2023-05-23T07:15:09.324Z,4.80
2023-05-23T07:17:42.704Z,4.75
2023-05-23T07:20:10.293Z,5.00
2023-05-23T07:22:38.863Z,5.07
2023-05-23T07:25:06.532Z,4.72
2023-05-23T07:27:35.446Z,4.63
2023-05-23T07:30:04.621Z,5.28
2023-05-23T07:32:31.613Z,5.32
2023-05-23T07:34:59.120Z,4.53
2023-05-23T07:37:27.630Z,5.20
2023-05-23T07:39:54.715Z,4.13
2023-05-23T07:42:21.794Z,5.13
2023-05-23T07:44:49.022Z,5.32
2023-05-23T07:47:16.040Z,5.05
2023-05-23T07:49:44.597Z,5.07
2023-05-23T07:52:11.637Z,5.25
2023-05-23T07:54:39.113Z,5.30
2023-05-23T07:57:07.380Z,5.65
2023-05-23T07:59:34.594Z,5.75
2023-05-23T08:02:02.453Z,5.72
2023-05-23T08:04:29.789Z,5.35
2023-05-23T08:09:31.702Z,5.20
2023-05-23T08:11:59.403Z,5.43
2023-05-23T08:14:38.603Z,5.73
2023-05-23T08:17:22.036Z,5.25
2023-05-23T08:19:49.283Z,5.00
2023-05-23T08:22:16.457Z,5.18
2023-05-23T08:24:43.562Z,4.25
2023-05-23T08:27:10.912Z,4.38
2023-05-23T08:29:38.589Z,4.28
2023-05-23T08:32:06.497Z,4.75
2023-05-23T08:34:35.002Z,5.03
2023-05-23T08:37:02.321Z,5.00
2023-05-23T08:39:29.689Z,4.13
2023-05-23T08:42:14.098Z,4.60
2023-05-23T08:44:41.185Z,4.97
2023-05-23T08:47:09.018Z,5.07
2023-05-23T08:49:55.180Z,4.00
2023-05-23T08:52:27.678Z,4.70
2023-05-23T08:54:56.704Z,4.15
2023-05-23T08:57:23.959Z,4.30
2023-05-23T08:59:57.598Z,4.25
2023-05-23T09:02:25.195Z,4.22
2023-05-23T09:04:57.625Z,3.85
2023-05-23T09:07:26.010Z,4.28
2023-05-23T09:09:53.672Z,4.00
2023-05-23T09:12:23.763Z,3.80
2023-05-23T09:14:51.124Z,3.70
2023-05-23T09:17:19.588Z,4.20
2023-05-23T09:19:47.566Z,3.70
2023-05-23T09:22:36.429Z,3.15
2023-05-23T09:25:09.514Z,3.20
2023-05-23T09:27:38.918Z,2.80
2023-05-23T09:30:08.235Z,2.85
2023-05-23T09:32:35.349Z,2.65
2023-05-23T09:35:06.303Z,2.70
2023-05-23T09:37:35.487Z,2.97
2023-05-23T09:40:14.246Z,3.55
2023-05-23T09:42:47.979Z,3.45
2023-05-23T09:45:16.352Z,2.88
2023-05-23T09:47:54.037Z,3.33
2023-05-23T09:50:22.462Z,3.55
2023-05-23T09:52:49.810Z,3.35
2023-05-23T09:55:17.099Z,2.83
2023-05-23T09:57:45.405Z,2.95
2023-05-23T10:00:13.808Z,3.50
2023-05-23T10:03:01.915Z,3.28
2023-05-23T10:05:57.783Z,3.47
2023-05-23T10:08:34.158Z,4.10
2023-05-23T10:11:13.247Z,4.82
2023-05-23T10:13:49.697Z,4.32
2023-05-23T10:16:28.894Z,3.72
2023-05-23T10:19:01.029Z,4.05
2023-05-23T10:21:33.466Z,3.97
2023-05-23T10:24:01.178Z,4.15
2023-05-23T10:26:28.563Z,4.18
2023-05-23T10:28:57.434Z,3.92
2023-05-23T10:31:25.105Z,3.30
2023-05-23T10:34:12.615Z,3.60
2023-05-23T10:37:04.192Z,3.67
2023-05-23T10:39:37.160Z,3.33
2023-05-23T10:42:11.652Z,3.58
2023-05-23T10:44:38.971Z,3.17
2023-05-23T10:47:06.141Z,3.03
2023-05-23T10:49:47.101Z,3.50
2023-05-23T10:52:16.743Z,2.75
2023-05-23T10:54:58.418Z,2.70
2023-05-23T10:57:28.218Z,2.58
2023-05-23T10:59:55.245Z,2.25
2023-05-23T11:02:29.443Z,1.95
2023-05-23T11:05:19.670Z,1.98
2023-05-23T11:07:46.686Z,1.50
2023-05-23T11:10:14.489Z,1.58
2023-05-23T11:12:43.021Z,1.25
2023-05-23T11:15:19.428Z,1.60
2023-05-23T11:17:57.429Z,1.85
2023-05-23T11:20:27.638Z,1.33
2023-05-23T11:25:44.006Z,1.33
2023-05-23T11:28:13.092Z,1.40
2023-05-23T11:30:41.308Z,1.27
2023-05-23T11:33:16.452Z,1.20
2023-05-23T11:35:45.406Z,0.98
2023-05-23T11:38:13.846Z,1.13
2023-05-23T11:40:43.343Z,1.10
2023-05-23T11:43:13.957Z,1.13
2023-05-23T11:48:13.186Z,1.13
2023-05-23T11:50:51.904Z,1.17
2023-05-23T11:53:21.731Z,0.90
2023-05-23T11:55:50.989Z,1.27
2023-05-23T11:58:18.502Z,1.40
2023-05-23T12:00:46.271Z,1.40
2023-05-23T12:03:13.706Z,1.50
2023-05-23T12:05:44.036Z,1.67
2023-05-23T12:08:14.572Z,1.50
2023-05-23T12:11:00.753Z,1.77
2023-05-23T12:13:30.806Z,1.77
2023-05-23T12:16:01.328Z,2.10
2023-05-23T12:18:29.895Z,2.92
2023-05-23T12:21:05.881Z,3.70
2023-05-23T12:23:34.984Z,3.50
2023-05-23T12:26:10.249Z,3.55
2023-05-23T12:28:43.250Z,4.72
2023-05-23T12:31:12.442Z,4.57
2023-05-23T12:33:44.584Z,4.72
2023-05-23T12:36:12.282Z,3.90
2023-05-23T12:38:40.946Z,3.85
2023-05-23T12:41:11.942Z,4.82
2023-05-23T12:43:40.718Z,4.35
2023-05-23T12:46:10.365Z,4.32
2023-05-23T12:48:37.300Z,4.25
2023-05-23T12:51:04.424Z,4.22
2023-05-23T12:53:32.438Z,4.22
2023-05-23T12:55:59.457Z,4.35
2023-05-23T12:58:27.243Z,4.45
2023-05-23T13:00:54.992Z,4.32
2023-05-23T13:03:22.035Z,4.82
2023-05-23T13:05:48.949Z,4.15
2023-05-23T13:08:16.680Z,3.92
2023-05-23T13:10:43.543Z,4.35
2023-05-23T13:13:11.046Z,4.47
2023-05-23T13:15:38.127Z,4.25
2023-05-23T13:18:05.456Z,4.45
2023-05-23T13:20:32.441Z,4.65
2023-05-23T13:22:59.505Z,4.47
2023-05-23T13:25:26.972Z,4.45
2023-05-23T13:27:54.170Z,4.65
2023-05-23T13:30:22.372Z,3.72
2023-05-23T13:32:51.535Z,3.80
2023-05-23T13:35:18.772Z,4.55
2023-05-23T13:37:46.281Z,4.40
2023-05-23T13:40:20.907Z,5.10
2023-05-23T13:42:50.989Z,4.45
2023-05-23T13:45:18.947Z,4.88
2023-05-23T13:47:47.046Z,5.50
2023-05-23T13:50:14.090Z,5.25
2023-05-23T13:52:44.173Z,4.80
2023-05-23T13:55:11.888Z,4.68
2023-05-23T13:57:38.790Z,4.82
2023-05-23T14:00:06.480Z,4.97
2023-05-23T14:02:34.922Z,4.82
2023-05-23T14:05:01.966Z,4.50
2023-05-23T14:07:29.280Z,4.55
2023-05-23T14:09:57.554Z,4.57
2023-05-23T14:12:24.527Z,4.45
2023-05-23T14:14:51.845Z,4.15
2023-05-23T14:17:19.066Z,3.78
2023-05-23T14:19:46.318Z,4.70
2023-05-23T14:22:13.317Z,5.05
2023-05-23T14:24:40.578Z,4.63
2023-05-23T14:27:10.215Z,4.22
2023-05-23T14:29:38.176Z,4.35
2023-05-23T14:32:05.373Z,4.72
2023-05-23T14:34:32.316Z,4.53
2023-05-23T14:36:59.224Z,4.57
2023-05-23T14:39:26.202Z,4.18
2023-05-23T14:41:53.162Z,3.85
2023-05-23T14:44:20.515Z,2.92
2023-05-23T14:46:49.713Z,3.30
2023-05-23T14:49:17.917Z,3.75
2023-05-23T14:51:51.425Z,3.30
2023-05-23T14:54:19.446Z,3.10
2023-05-23T14:56:46.611Z,3.10
2023-05-23T14:59:13.663Z,2.95
2023-05-23T15:01:41.096Z,3.85
2023-05-23T15:04:11.806Z,4.40
2023-05-23T15:06:39.718Z,3.90
2023-05-23T15:09:07.683Z,3.80
2023-05-23T15:11:36.857Z,3.50
2023-05-23T15:14:03.868Z,3.90
2023-05-23T15:16:35.081Z,3.38
2023-05-23T15:19:02.131Z,3.50
2023-05-23T15:21:29.460Z,3.22
2023-05-23T15:23:58.960Z,3.40
2023-05-23T15:26:27.376Z,3.70
2023-05-23T15:28:54.353Z,3.65
2023-05-23T15:31:21.795Z,3.70
2023-05-23T15:33:49.126Z,4.07
2023-05-23T15:36:16.234Z,3.53
2023-05-23T15:38:43.869Z,4.00
2023-05-23T15:41:11.461Z,4.40
2023-05-23T15:43:38.461Z,4.03
2023-05-23T15:46:05.675Z,3.85
2023-05-23T15:48:32.986Z,3.72
2023-05-23T15:51:00.616Z,3.75
2023-05-23T15:53:27.624Z,3.67
2023-05-23T15:55:55.074Z,4.00
2023-05-23T15:58:22.352Z,3.72
2023-05-23T16:00:49.480Z,3.83
2023-05-23T16:03:16.433Z,3.60
2023-05-23T16:05:43.554Z,4.13
2023-05-23T16:08:11.034Z,4.18
2023-05-23T16:10:38.160Z,3.75
2023-05-23T16:13:05.519Z,4.40
2023-05-23T16:15:32.924Z,3.78
2023-05-23T16:18:00.726Z,4.03
2023-05-23T16:20:28.289Z,3.97
2023-05-23T16:22:55.461Z,3.58
2023-05-23T16:25:22.529Z,3.53
2023-05-23T16:27:49.498Z,4.05
2023-05-23T16:30:16.462Z,4.45
2023-05-23T16:32:43.667Z,3.45
2023-05-23T16:35:14.114Z,4.10
2023-05-23T16:40:09.866Z,4.40
2023-05-23T16:42:37.315Z,4.07
2023-05-23T16:45:05.049Z,3.70
2023-05-23T16:47:31.999Z,4.28
2023-05-23T16:49:59.001Z,3.78
2023-05-23T16:52:26.022Z,4.10
2023-05-23T16:54:53.160Z,3.80
2023-05-23T16:57:20.287Z,3.97
2023-05-23T16:59:47.172Z,3.78
2023-05-23T17:02:16.359Z,3.22
2023-05-23T17:04:43.696Z,3.63
2023-05-23T17:07:10.632Z,3.25
2023-05-23T17:09:37.694Z,3.65
2023-05-23T17:12:05.159Z,4.20
2023-05-23T17:14:32.290Z,4.00
2023-05-23T17:16:59.267Z,3.75
2023-05-23T17:19:26.458Z,3.53
2023-05-23T17:21:53.646Z,3.70
2023-05-23T17:24:21.163Z,3.92
2023-05-23T17:26:48.220Z,3.25
2023-05-23T17:29:17.384Z,3.58
2023-05-23T17:31:44.567Z,3.83
2023-05-23T17:34:12.653Z,3.35
2023-05-23T17:36:39.981Z,3.33
2023-05-23T17:39:07.360Z,3.58
2023-05-23T17:41:34.346Z,3.15
2023-05-23T17:44:02.359Z,3.55
2023-05-23T17:46:29.398Z,2.97
2023-05-23T17:48:56.336Z,2.80
2023-05-23T17:51:23.458Z,4.40
2023-05-23T17:53:53.573Z,3.95
2023-05-23T17:56:23.211Z,3.72
2023-05-23T17:58:50.713Z,3.28
2023-05-23T18:01:18.076Z,3.53
2023-05-23T18:03:45.230Z,3.22
2023-05-23T18:06:12.196Z,4.20
2023-05-23T18:08:39.104Z,3.28
2023-05-23T18:11:06.301Z,3.45
2023-05-23T18:13:33.623Z,3.95
2023-05-23T18:16:01.071Z,4.57
2023-05-23T18:18:28.429Z,3.17
2023-05-23T18:20:56.384Z,3.63
2023-05-23T18:23:23.793Z,3.63
2023-05-23T18:25:50.681Z,3.67
2023-05-23T18:28:17.652Z,3.03
2023-05-23T18:30:44.831Z,2.88
2023-05-23T18:33:11.990Z,3.13
2023-05-23T18:35:39.016Z,3.58
2023-05-23T18:38:06.748Z,2.95
2023-05-23T18:40:33.614Z,3.42
2023-05-23T18:43:00.586Z,3.17
2023-05-23T18:45:27.986Z,4.18
2023-05-23T18:47:54.889Z,3.47
2023-05-23T18:50:22.254Z,4.20
2023-05-23T18:52:49.482Z,3.80
2023-05-23T18:55:16.948Z,3.88
2023-05-23T18:57:43.839Z,3.60
2023-05-23T19:00:11.234Z,2.70
2023-05-23T19:02:43.831Z,3.05
2023-05-23T19:05:12.410Z,3.17
2023-05-23T19:07:39.627Z,3.08
2023-05-23T19:10:07.086Z,2.97
2023-05-23T19:12:34.721Z,3.33
2023-05-23T19:15:01.944Z,3.10
2023-05-23T19:17:28.926Z,3.63
2023-05-23T19:19:55.960Z,3.00
2023-05-23T19:22:23.763Z,3.03
2023-05-23T19:24:50.925Z,3.47
2023-05-23T19:27:18.352Z,2.83
2023-05-23T19:29:45.486Z,3.28
2023-05-23T19:32:12.573Z,3.22
2023-05-23T19:34:39.652Z,3.85
2023-05-23T19:37:06.585Z,3.10
2023-05-23T19:39:33.457Z,3.63
2023-05-23T19:42:00.353Z,2.72
2023-05-23T19:44:27.794Z,3.45
2023-05-23T19:46:54.799Z,3.22
2023-05-23T19:49:21.856Z,2.70
2023-05-23T19:51:48.845Z,3.00
2023-05-23T19:54:16.192Z,3.22
2023-05-23T19:56:43.679Z,3.63
2023-05-23T19:59:11.460Z,3.85
2023-05-23T20:01:38.381Z,3.38
2023-05-23T20:04:06.375Z,2.75
2023-05-23T20:06:36.939Z,4.13
2023-05-23T20:09:04.034Z,3.08
2023-05-23T20:11:31.413Z,3.60
2023-05-23T20:13:58.686Z,4.50
2023-05-23T20:16:26.434Z,3.70
2023-05-23T20:18:53.815Z,2.97
2023-05-23T20:21:21.648Z,2.92
2023-05-23T20:23:49.251Z,3.30
2023-05-23T20:26:16.400Z,3.60
2023-05-23T20:28:43.351Z,3.30
2023-05-23T20:31:10.690Z,3.55
2023-05-23T20:33:37.586Z,3.58
2023-05-23T20:36:04.793Z,3.28
2023-05-23T20:38:34.032Z,3.22
2023-05-23T20:41:06.606Z,3.78
2023-05-23T20:43:37.141Z,2.85
2023-05-23T20:46:09.928Z,3.22
2023-05-23T20:48:36.769Z,4.55
2023-05-23T20:51:05.848Z,3.38
2023-05-23T20:53:33.158Z,3.38
2023-05-23T20:56:01.199Z,3.50
2023-05-23T20:58:28.479Z,3.60
2023-05-23T21:00:56.142Z,3.17
2023-05-23T21:03:23.590Z,3.10
2023-05-23T21:05:50.462Z,4.30
2023-05-23T21:08:17.767Z,3.25
2023-05-23T21:10:48.063Z,3.70
2023-05-23T21:13:16.974Z,3.25
2023-05-23T21:15:44.089Z,3.55
2023-05-23T21:18:11.235Z,3.50
2023-05-23T21:20:38.325Z,2.63
2023-05-23T21:23:05.264Z,3.83
2023-05-23T21:25:32.302Z,3.08
2023-05-23T21:27:59.658Z,3.25
2023-05-23T21:30:26.635Z,3.03
2023-05-23T21:32:53.664Z,4.15
2023-05-23T21:35:20.709Z,3.75
2023-05-23T21:37:47.589Z,3.45
2023-05-23T21:40:14.872Z,3.13
2023-05-23T21:42:41.830Z,3.60
2023-05-23T21:45:09.463Z,3.13
2023-05-23T21:47:36.842Z,3.65
2023-05-23T21:50:04.624Z,3.83
2023-05-23T21:52:31.650Z,3.05
2023-05-23T21:54:58.566Z,3.25
2023-05-23T21:57:25.934Z,3.45
2023-05-23T21:59:53.033Z,3.13
2023-05-23T22:02:19.973Z,3.03
2023-05-23T22:04:47.295Z,2.63
2023-05-23T22:07:14.252Z,3.50
2023-05-23T22:09:41.388Z,3.08
2023-05-23T22:12:08.633Z,3.45
2023-05-23T22:14:36.167Z,2.72
2023-05-23T22:17:04.356Z,2.80
2023-05-23T22:19:31.688Z,3.88
2023-05-23T22:21:58.620Z,3.38
2023-05-23T22:24:26.299Z,3.00
2023-05-23T22:26:53.219Z,3.08
2023-05-23T22:29:20.163Z,3.25
2023-05-23T22:31:47.605Z,3.90
2023-05-23T22:34:15.057Z,3.00
2023-05-23T22:36:42.364Z,3.38
2023-05-23T22:39:09.659Z,4.05
2023-05-23T22:41:36.649Z,3.53
2023-05-23T22:44:03.713Z,3.20
2023-05-23T22:46:31.027Z,3.42
2023-05-23T22:48:58.416Z,3.00
2023-05-23T22:51:25.394Z,3.33
2023-05-23T22:53:52.938Z,2.97
2023-05-23T22:56:20.359Z,3.42
2023-05-23T22:58:47.727Z,2.92
2023-05-23T23:01:14.754Z,3.35
2023-05-23T23:03:42.088Z,2.60
2023-05-23T23:06:09.448Z,2.88
2023-05-23T23:08:37.701Z,2.85
2023-05-23T23:11:05.296Z,2.75
2023-05-23T23:13:32.231Z,2.80
2023-05-23T23:15:59.527Z,3.40
2023-05-23T23:18:26.978Z,2.78
2023-05-23T23:20:54.566Z,3.10
2023-05-23T23:23:21.479Z,2.60
2023-05-23T23:25:50.202Z,2.75
2023-05-23T23:28:17.844Z,3.05
2023-05-23T23:30:45.081Z,3.80
2023-05-23T23:33:12.869Z,2.92
2023-05-23T23:35:39.843Z,3.47
2023-05-23T23:38:06.991Z,4.03
2023-05-23T23:40:33.882Z,2.92
2023-05-23T23:43:01.266Z,2.83
2023-05-23T23:45:28.124Z,4.10
2023-05-23T23:47:55.045Z,3.78
2023-05-23T23:50:22.347Z,3.63
2023-05-23T23:52:49.968Z,4.07
2023-05-23T23:55:17.646Z,3.80
2023-05-23T23:57:44.590Z,3.08
